Etusivu
METAR-TAF:

METAR-TAF

Lentoasemat :

Hill City Municipal Airport

Hill City, Kansas, Yhdysvallat

Leveyspiiri: 39-22-29N, Pituuspiiri: 099-49-47W, korkeus merenpinnasta: 678 m

Tämänhetkinen sää

Tämä raportti tehtiin 17 minuuttia sitten, kello 02.53 UTC
Tuuli 6 kn idästä/kaakosta
Lämpötila 22°C
Kosteus 83%
Ilmanpaine 1024 hPa
Näkyvyys: 16.1 km
Hajanaisia pilviä 3200 ft:n korkeudessa
Pilvistä 6000 ft:n korkeudessa

METAR: KHLC 200253Z AUTO 11006KT 10SM SCT032 OVC060 22/19 A3023 RMK AO2 SLP220 T02220194 53011

Aika: 22:10 (03:10 UTC)


TAF: puuttuu

Säähavainnot ja -ennusteet yli 4000 lentoasemalta (METAR- ja TAF-raportit).

Käytössä olevat sääasemat on merkitty karttaan keltaisilla ja punaisilla pisteillä.

Aseta hiiri pisteen päälle nähdäksesi sääaseman nimen.

Klikkaa sitten nähdäksesi säähavainnot ja -ennusteet.

Kartan vaihtaminen: klikkaa mustalla rastilla varustettuja vihreitä pisteitä, niin voit zoomata sisään; viivalla varustettua vihreää pistettä, niin voit zoomata ulos tai vihreitä nuolia, niin pääset viereisille kartoille.


METAR-TAF: